• Join FlightAware (Why Join?)
  • Login
  • US Flag 
05:48PM EST


 

Airport Tracker/Info


-or-


 

Live Flight TrackerFlight Track Log ✈ RPA3496 ✈ 08-May-2014 ✈ KPHL - KLGA

Flight Track Log - Related Links

Times and Time Zones

All times are in EDT time to prevent confusion due to time zone crossing. See the RPA3496 flight status page for this flight to view local times or setup timezone preferences in your user account.

Time Position Orientation Groundspeed Altitude Reporting Facility
EDT Latitude Longitude Course Direction KTS MPH feet Rate Location/Type
03:41PM 39.8500 -75.0151 90° East  Level FlightAware Approximate
03:42PM 39.8641 -74.9491 44° Northeast  Level FlightAware Approximate
03:43PM 39.9050 -74.8979 44° Northeast  Level FlightAware Approximate
03:44PM 39.9462 -74.8474 49° Northeast  Level FlightAware Approximate
03:45PM 40.0667 -74.6833 47° Northeast 285 328 8,000  Level New York TRACON
03:45PM 39.9851 -74.7937 44° Northeast  Level FlightAware Approximate
03:46PM 40.1167 -74.6000 52° Northeast 282 325 8,000  Level New York TRACON
03:46PM 40.0260 -74.7425 44° Northeast  Level FlightAware Approximate
03:47PM 40.1833 -74.5333 37° Northeast 283 326 8,000  Level New York TRACON
03:47PM 40.0588 -74.6824 57° Northeast  Level FlightAware Approximate
03:48PM 40.0978 -74.6294 47° Northeast  Level FlightAware Approximate
03:48PM 40.2333 -74.4667 45° Northeast 278 320 8,000  Level New York TRACON
03:49PM 40.1361 -74.5747 47° Northeast  Level FlightAware Approximate
03:49PM 40.3000 -74.3833 44° Northeast 278 320 7,800  Level New York TRACON
03:50PM 40.1744 -74.5200 48° Northeast  Level FlightAware Approximate
03:50PM 40.3500 -74.3167 45° Northeast 276 318 7,000  Level New York TRACON
03:51PM 40.2139 -74.4667 42° Northeast  Level FlightAware Approximate
03:51PM 40.4000 -74.2500 45° Northeast 274 315 7,000  Level New York TRACON
03:52PM 40.2557 -74.4165 42° Northeast  Level FlightAware Approximate
03:52PM 40.4500 -74.1667 52° Northeast 275 316 7,000  Level New York TRACON
03:53PM 40.2965 -74.3650 47° Northeast  Level FlightAware Approximate
03:53PM 40.5167 -74.1167 30° Northeast 238 274 7,000  Level New York TRACON
03:54PM 40.3353 -74.3107 47° Northeast  Level FlightAware Approximate
03:54PM 40.5500 -74.0667 49° Northeast 225 259 5,100  Level New York TRACON
03:55PM 40.6167 -74.0167 30° Northeast 224 258 4,000 -1,200 Descending New York TRACON
03:56PM 40.6667 -73.9667 37° Northeast 208 239 2,700 -1,200 Descending New York TRACON
03:57PM 40.7000 -73.9333 37° Northeast 177 204 1,700 -960 Descending New York TRACON
03:58PM 40.7333 -73.9167 21° North 134 154 800 -780 Descending New York TRACON
03:59PM 40.7667 -73.8833 37° Northeast 173 199 200 -600 Descending New York TRACON
04:01PM 40.7667 -73.8667 30° Northeast  Level FlightAware Approximate
04:08PM 40.7772 -73.8726 30° Northeast  Level Estimated